createdAt,value
2022-09-13T00:00:00.286Z,995.79
2022-09-13T00:05:00.084Z,995.7
2022-09-13T00:10:00.118Z,995.77
2022-09-13T00:15:00.079Z,995.62
2022-09-13T00:20:00.207Z,995.57
2022-09-13T00:25:00.102Z,995.34
2022-09-13T00:30:00.147Z,995.33
2022-09-13T00:35:00.094Z,995.27
2022-09-13T00:40:00.242Z,995.28
2022-09-13T00:45:00.135Z,995.21
2022-09-13T00:50:00.099Z,995.13
2022-09-13T00:55:00.114Z,995.13
2022-09-13T01:00:00.145Z,995.04
2022-09-13T01:05:00.089Z,994.97
2022-09-13T01:10:00.126Z,994.98
2022-09-13T01:15:00.099Z,994.94
2022-09-13T01:20:00.138Z,994.92
2022-09-13T01:25:00.106Z,994.9
2022-09-13T01:30:00.086Z,994.84
2022-09-13T01:35:00.109Z,994.92
2022-09-13T01:40:00.251Z,994.84
2022-09-13T01:45:00.129Z,994.8
2022-09-13T01:50:00.126Z,994.83
2022-09-13T01:55:00.105Z,994.78
2022-09-13T02:00:00.131Z,994.67
2022-09-13T02:05:00.086Z,994.67
2022-09-13T02:10:00.095Z,994.68
2022-09-13T02:15:00.078Z,994.5
2022-09-13T02:20:00.119Z,994.54
2022-09-13T02:25:00.104Z,994.41
2022-09-13T02:30:00.114Z,994.39
2022-09-13T02:35:00.166Z,994.3
2022-09-13T02:40:00.316Z,994.25
2022-09-13T02:45:00.099Z,994.08
2022-09-13T02:50:00.106Z,993.97
2022-09-13T02:55:00.125Z,993.85
2022-09-13T03:00:00.195Z,993.99
2022-09-13T03:05:00.076Z,994.01
2022-09-13T03:10:00.245Z,993.97
2022-09-13T03:15:00.109Z,994.01
2022-09-13T03:20:00.133Z,994.02
2022-09-13T03:25:00.099Z,993.88
2022-09-13T03:30:00.123Z,993.93
2022-09-13T03:35:00.097Z,993.84
2022-09-13T03:40:00.218Z,993.99
2022-09-13T03:45:00.105Z,993.85
2022-09-13T03:50:00.090Z,993.8
2022-09-13T03:55:00.113Z,993.77
2022-09-13T04:00:00.183Z,993.79
2022-09-13T04:05:00.086Z,993.77
2022-09-13T04:10:00.109Z,993.78
2022-09-13T04:15:00.106Z,993.71
2022-09-13T04:20:00.239Z,993.68
2022-09-13T04:25:02.312Z,993.72
2022-09-13T04:30:00.110Z,993.81
2022-09-13T04:35:00.075Z,993.79
2022-09-13T04:40:00.190Z,993.7
2022-09-13T04:45:00.089Z,993.72
2022-09-13T04:50:00.086Z,993.63
2022-09-13T04:55:00.077Z,993.68
2022-09-13T05:00:00.168Z,993.54
2022-09-13T05:05:00.097Z,993.49
2022-09-13T05:10:00.130Z,993.45
2022-09-13T05:15:00.123Z,993.53
2022-09-13T05:20:00.105Z,993.53
2022-09-13T05:25:00.104Z,993.51
2022-09-13T05:30:00.100Z,993.38
2022-09-13T05:35:00.093Z,993.39
2022-09-13T05:40:11.040Z,993.33
2022-09-13T05:45:00.101Z,993.44
2022-09-13T05:50:27.442Z,993.45
2022-09-13T05:55:00.128Z,993.43
2022-09-13T06:00:00.261Z,993.3
2022-09-13T06:05:00.078Z,993.29
2022-09-13T06:10:00.092Z,993.3
2022-09-13T06:15:00.097Z,993.16
2022-09-13T06:20:00.211Z,993.21
2022-09-13T06:25:00.081Z,993.23
2022-09-13T06:30:00.160Z,993.32
2022-09-13T06:35:00.107Z,993.4
2022-09-13T06:40:00.274Z,993.67
2022-09-13T06:45:00.099Z,993.69
2022-09-13T06:50:00.086Z,993.63
2022-09-13T06:55:00.101Z,993.66
2022-09-13T07:00:00.129Z,993.61
2022-09-13T07:05:00.090Z,993.47
2022-09-13T07:10:00.098Z,993.45
2022-09-13T07:15:00.095Z,993.57
2022-09-13T07:20:00.128Z,993.49
2022-09-13T07:25:00.088Z,993.44
2022-09-13T07:30:00.131Z,993.45
2022-09-13T07:35:00.072Z,993.37
2022-09-13T07:40:00.155Z,993.42
2022-09-13T07:45:00.074Z,993.56
2022-09-13T07:50:00.086Z,993.34
2022-09-13T07:55:00.107Z,993.26
2022-09-13T08:00:00.214Z,993.34
2022-09-13T08:05:00.086Z,993.39
2022-09-13T08:10:00.102Z,993.44
2022-09-13T08:15:00.089Z,993.34
2022-09-13T08:20:00.109Z,993.38
2022-09-13T08:25:00.087Z,993.31
2022-09-13T08:30:00.108Z,993.44
2022-09-13T08:35:00.098Z,993.38
2022-09-13T08:40:00.329Z,993.49
2022-09-13T08:45:00.087Z,993.35
2022-09-13T08:50:00.092Z,993.23
2022-09-13T08:55:00.098Z,993.29
2022-09-13T09:00:00.275Z,993.31
2022-09-13T09:05:00.080Z,993.25
2022-09-13T09:10:00.116Z,993.21
2022-09-13T09:15:00.092Z,993.26
2022-09-13T09:20:00.195Z,993.2
2022-09-13T09:25:00.085Z,993.2
2022-09-13T09:30:00.123Z,993.19
2022-09-13T09:35:00.087Z,993.08
2022-09-13T09:40:00.182Z,992.97
2022-09-13T09:45:00.076Z,992.97
2022-09-13T09:50:00.082Z,992.91
2022-09-13T09:55:00.098Z,992.92
2022-09-13T10:00:00.231Z,992.86
2022-09-13T10:05:00.093Z,992.85
2022-09-13T10:10:00.112Z,992.84
2022-09-13T10:15:00.099Z,992.8
2022-09-13T10:20:00.099Z,992.77
2022-09-13T10:25:00.095Z,992.67
2022-09-13T10:30:00.094Z,992.66
2022-09-13T10:35:00.099Z,992.64
2022-09-13T10:40:00.210Z,992.57
2022-09-13T10:45:00.103Z,992.54
2022-09-13T10:50:00.108Z,992.51
2022-09-13T10:55:00.115Z,992.55
2022-09-13T11:00:00.266Z,992.54
2022-09-13T11:05:00.085Z,992.52
2022-09-13T11:10:00.106Z,992.48
2022-09-13T11:15:00.101Z,992.44
2022-09-13T11:20:00.153Z,992.29
2022-09-13T11:25:00.109Z,992.36
2022-09-13T11:30:00.127Z,992.28
2022-09-13T11:35:00.141Z,992.2
2022-09-13T11:40:00.356Z,992.18
2022-09-13T11:45:00.078Z,992.16
2022-09-13T11:50:00.074Z,992.06
2022-09-13T11:55:00.088Z,992.06
2022-09-13T12:00:00.260Z,991.99
2022-09-13T12:05:20.801Z,992.04
2022-09-13T12:10:00.104Z,992.07
2022-09-13T12:15:00.078Z,992
2022-09-13T12:20:00.133Z,991.96
2022-09-13T12:25:00.125Z,991.94
2022-09-13T12:30:00.103Z,991.95
2022-09-13T12:35:00.105Z,991.94
2022-09-13T12:40:00.202Z,991.95
2022-09-13T12:45:00.092Z,991.91
2022-09-13T12:50:15.002Z,991.77
2022-09-13T12:55:00.101Z,991.82
2022-09-13T13:00:00.192Z,991.72
2022-09-13T13:05:00.107Z,991.72
2022-09-13T13:10:00.108Z,991.75
2022-09-13T13:15:00.099Z,991.72
2022-09-13T13:20:00.206Z,991.68
2022-09-13T13:25:00.097Z,991.7
2022-09-13T13:30:00.126Z,991.53
2022-09-13T13:35:00.083Z,991.48
2022-09-13T13:40:00.175Z,991.38
2022-09-13T13:45:00.104Z,991.32
2022-09-13T13:50:00.120Z,991.34
2022-09-13T13:55:00.111Z,991.29
2022-09-13T14:00:00.238Z,991.21
2022-09-13T14:05:00.099Z,991.3
2022-09-13T14:10:00.229Z,991.25
2022-09-13T14:15:00.124Z,991.22
2022-09-13T14:20:00.251Z,991.14
2022-09-13T14:25:00.086Z,991.16
2022-09-13T14:30:00.197Z,991.18
2022-09-13T14:35:00.146Z,991.04
2022-09-13T14:40:00.260Z,991.04
2022-09-13T14:45:00.093Z,990.95
2022-09-13T14:50:00.093Z,990.99
2022-09-13T14:55:00.125Z,991.01
2022-09-13T15:00:00.194Z,990.97
2022-09-13T15:05:00.242Z,990.91
2022-09-13T15:10:00.107Z,990.92
2022-09-13T15:15:00.113Z,990.93
2022-09-13T15:20:00.122Z,990.91
2022-09-13T15:25:00.123Z,990.85
2022-09-13T15:30:00.143Z,990.8
2022-09-13T15:35:00.091Z,990.72
2022-09-13T15:40:00.221Z,990.95
2022-09-13T15:45:00.105Z,991.02
2022-09-13T15:50:00.101Z,990.99
2022-09-13T15:55:00.098Z,991.07
2022-09-13T16:00:04.166Z,991.07
2022-09-13T16:05:00.106Z,990.99
2022-09-13T16:10:00.105Z,991.05
2022-09-13T16:15:00.087Z,991.06
2022-09-13T16:20:00.205Z,991.05
2022-09-13T16:25:00.095Z,991.09
2022-09-13T16:30:00.112Z,991.13
2022-09-13T16:35:00.091Z,991.12
2022-09-13T16:40:00.242Z,991.12
2022-09-13T16:45:00.101Z,991.12
2022-09-13T16:50:00.092Z,991.12
2022-09-13T16:55:00.123Z,991.26
2022-09-13T17:00:00.193Z,991.18
2022-09-13T17:05:00.092Z,991.14
2022-09-13T17:10:00.126Z,991.12
2022-09-13T17:15:00.108Z,991.02
2022-09-13T17:20:00.136Z,991.11
2022-09-13T17:25:00.096Z,991.09
2022-09-13T17:30:00.118Z,991.26
2022-09-13T17:35:00.112Z,991.25
2022-09-13T17:40:00.227Z,991.15
2022-09-13T17:45:00.111Z,991.06
2022-09-13T17:50:00.109Z,991.09
2022-09-13T17:55:00.096Z,990.99
2022-09-13T18:00:00.226Z,991.04
2022-09-13T18:05:03.471Z,991.04
2022-09-13T18:10:00.106Z,991.12
2022-09-13T18:15:00.194Z,991.08
2022-09-13T18:20:00.154Z,991.13
2022-09-13T18:25:00.111Z,991.12
2022-09-13T18:30:00.124Z,991.16
2022-09-13T18:35:00.082Z,991.15
2022-09-13T18:40:00.224Z,991.19
2022-09-13T18:45:00.089Z,991.16
2022-09-13T18:50:00.108Z,991.07
2022-09-13T18:55:00.120Z,991.11
2022-09-13T19:00:00.198Z,991.21
2022-09-13T19:05:01.766Z,991.25
2022-09-13T19:10:00.118Z,991.32
2022-09-13T19:15:00.116Z,991.37
2022-09-13T19:20:00.151Z,991.32
2022-09-13T19:25:00.144Z,991.4
2022-09-13T19:30:00.169Z,991.39
2022-09-13T19:35:00.113Z,991.34
2022-09-13T19:40:00.236Z,991.44
2022-09-13T19:45:00.096Z,991.38
2022-09-13T19:50:00.120Z,991.36
2022-09-13T19:55:00.083Z,991.41
2022-09-13T20:00:00.168Z,991.47
2022-09-13T20:05:00.199Z,991.49
2022-09-13T20:10:00.118Z,991.6
2022-09-13T20:15:00.102Z,991.59
2022-09-13T20:20:00.244Z,991.62
2022-09-13T20:25:00.096Z,991.63
2022-09-13T20:30:00.123Z,991.62
2022-09-13T20:35:00.127Z,991.64
2022-09-13T20:40:00.346Z,991.55
2022-09-13T20:45:00.090Z,991.48
2022-09-13T20:50:00.111Z,991.56
2022-09-13T20:55:00.135Z,991.49
2022-09-13T21:00:00.221Z,991.47
2022-09-13T21:05:00.117Z,991.37
2022-09-13T21:10:00.145Z,991.49
2022-09-13T21:15:00.106Z,991.52
2022-09-13T21:20:00.114Z,991.44
2022-09-13T21:25:00.103Z,991.47
2022-09-13T21:30:00.139Z,991.43
2022-09-13T21:35:00.113Z,991.46
2022-09-13T21:40:00.221Z,991.61
2022-09-13T21:45:00.103Z,991.5
2022-09-13T21:50:00.106Z,991.6
2022-09-13T21:55:00.088Z,991.62
2022-09-13T22:00:00.299Z,991.61
2022-09-13T22:05:00.106Z,991.68
2022-09-13T22:10:00.114Z,991.59
2022-09-13T22:15:00.083Z,991.58
2022-09-13T22:20:00.175Z,991.58
2022-09-13T22:25:00.100Z,991.5
2022-09-13T22:30:00.170Z,991.57
2022-09-13T22:35:00.093Z,991.56
2022-09-13T22:40:00.310Z,991.54
2022-09-13T22:45:00.104Z,991.51
2022-09-13T22:50:00.109Z,991.59
2022-09-13T22:55:00.124Z,991.44
2022-09-13T23:00:00.241Z,991.46
2022-09-13T23:05:00.096Z,991.3
2022-09-13T23:10:00.105Z,991.44
2022-09-13T23:15:00.109Z,991.48
2022-09-13T23:20:00.112Z,991.39
2022-09-13T23:25:00.118Z,991.46
2022-09-13T23:30:00.120Z,991.31
2022-09-13T23:35:00.101Z,991.23
2022-09-13T23:40:00.242Z,991.18
2022-09-13T23:45:00.088Z,991.16
2022-09-13T23:50:00.091Z,991.29
2022-09-13T23:55:00.126Z,991.25
